Time;durP1;ratioP1;P1;durP2;ratioP2;P2;SDS_P1;SDS_P2;PMS_P1;PMS_P2;Temp;Humidity;BMP_temperature;BMP_pressure;BME280_temperature;BME280_humidity;BME280_pressure;Samples;Min_cycle;Max_cycle;Signal;HPM_P1;HPM_P2
2023/02/15 00:01:28;;;;;;;0.50;0.40;;;4.50;99.90;;;;;;5049268;28;20202;-78
2023/02/15 00:03:56;;;;;;;0.50;0.43;;;4.50;99.90;;;;;;5047607;28;20201;-78
2023/02/15 00:06:23;;;;;;;4.00;2.45;;;4.50;99.90;;;;;;5045477;28;20334;-79
2023/02/15 00:08:50;;;;;;;0.65;0.65;;;4.40;99.90;;;;;;5047501;28;20202;-79
2023/02/15 00:11:39;;;;;;;0.60;0.50;;;4.40;99.90;;;;;;5053319;28;20286;-78
2023/02/15 00:14:07;;;;;;;0.50;0.40;;;4.40;99.90;;;;;;5049239;28;20207;-78
2023/02/15 00:16:34;;;;;;;0.50;0.50;;;4.40;99.90;;;;;;5042477;28;20219;-78
2023/02/15 00:19:02;;;;;;;0.50;0.40;;;4.40;99.90;;;;;;5048102;28;20207;-79
2023/02/15 00:21:30;;;;;;;0.50;0.40;;;4.20;99.90;;;;;;5049465;28;20199;-78
2023/02/15 00:23:57;;;;;;;0.50;0.47;;;4.20;99.90;;;;;;5046972;28;20197;-78
2023/02/15 00:26:24;;;;;;;0.50;0.40;;;4.10;99.90;;;;;;5043690;28;20215;-78
2023/02/15 00:28:51;;;;;;;0.50;0.50;;;4.00;99.90;;;;;;5047799;28;20199;-79
2023/02/15 00:31:18;;;;;;;0.50;0.40;;;3.90;99.90;;;;;;5045989;28;20282;-79
2023/02/15 00:33:44;;;;;;;0.50;0.40;;;3.80;99.90;;;;;;5044834;28;20578;-77
2023/02/15 00:36:13;;;;;;;0.50;0.50;;;3.80;99.90;;;;;;5046547;28;20211;-79
2023/02/15 00:38:40;;;;;;;0.50;0.40;;;3.70;99.90;;;;;;5046467;28;20199;-78
2023/02/15 00:41:09;;;;;;;0.50;0.40;;;3.60;99.90;;;;;;5043898;28;20202;-79
2023/02/15 00:43:36;;;;;;;0.50;0.50;;;3.50;99.90;;;;;;5045057;28;20195;-78
2023/02/15 00:46:05;;;;;;;0.50;0.40;;;3.40;99.90;;;;;;5052611;28;20732;-78
2023/02/15 00:48:32;;;;;;;0.50;0.40;;;3.40;99.90;;;;;;5045388;28;20206;-79
2023/02/15 00:51:00;;;;;;;0.50;0.40;;;3.40;99.90;;;;;;5046935;28;20204;-78
2023/02/15 00:53:29;;;;;;;0.50;0.40;;;3.30;99.90;;;;;;5047568;28;20716;-79
2023/02/15 00:55:56;;;;;;;0.50;0.40;;;3.30;99.90;;;;;;5048646;28;20196;-79
2023/02/15 00:58:23;;;;;;;0.50;0.40;;;3.20;99.90;;;;;;5049254;28;20640;-79
2023/02/15 01:00:50;;;;;;;0.50;0.45;;;3.10;99.90;;;;;;5048240;28;20266;-78
2023/02/15 01:03:18;;;;;;;0.50;0.50;;;3.00;99.90;;;;;;5041598;28;20190;-78
2023/02/15 01:05:47;;;;;;;0.50;0.40;;;3.00;99.90;;;;;;5040180;28;20227;-79
2023/02/15 01:08:14;;;;;;;0.50;0.40;;;3.00;99.90;;;;;;5037078;28;20229;-79
2023/02/15 01:10:43;;;;;;;0.50;0.40;;;2.90;99.90;;;;;;5052710;28;20241;-79
2023/02/15 01:13:10;;;;;;;0.50;0.50;;;2.90;99.90;;;;;;5044561;28;20720;-79
2023/02/15 01:15:37;;;;;;;0.50;0.40;;;2.80;99.90;;;;;;5043663;28;20214;-79
2023/02/15 01:18:04;;;;;;;0.50;0.40;;;2.70;99.90;;;;;;5045271;28;20693;-78
2023/02/15 01:20:34;;;;;;;0.50;0.40;;;2.70;99.90;;;;;;5044903;28;20202;-78
2023/02/15 01:23:01;;;;;;;2.05;1.95;;;2.60;99.90;;;;;;5052740;28;20209;-76
2023/02/15 01:25:28;;;;;;;0.93;0.93;;;2.60;99.90;;;;;;5044714;28;20196;-78
2023/02/15 01:27:56;;;;;;;1.83;1.73;;;2.70;99.90;;;;;;5044698;28;20215;-78
2023/02/15 01:30:23;;;;;;;1.38;1.30;;;2.70;99.90;;;;;;5044886;28;20215;-79
2023/02/15 01:32:49;;;;;;;0.50;0.50;;;2.70;99.90;;;;;;5035953;28;20235;-78
2023/02/15 01:35:16;;;;;;;0.50;0.50;;;2.70;99.90;;;;;;5046093;28;20218;-78
2023/02/15 01:37:43;;;;;;;0.50;0.50;;;2.70;99.90;;;;;;5047993;28;20225;-78
2023/02/15 01:40:16;;;;;;;0.65;0.63;;;2.70;99.90;;;;;;5047601;28;20883;-78
2023/02/15 01:42:43;;;;;;;0.50;0.40;;;2.70;99.90;;;;;;5047006;28;20229;-77
2023/02/15 01:45:21;;;;;;;0.50;0.43;;;2.70;99.90;;;;;;5041976;28;20195;-77
2023/02/15 01:47:53;;;;;;;1.40;1.30;;;2.60;99.90;;;;;;5042254;28;20226;-78
2023/02/15 01:50:30;;;;;;;0.65;0.65;;;2.60;99.90;;;;;;5031125;28;20616;-77
2023/02/15 01:53:02;;;;;;;0.50;0.40;;;2.60;99.90;;;;;;5044104;28;20199;-79
2023/02/15 01:55:35;;;;;;;0.50;0.40;;;2.60;99.90;;;;;;5042410;28;20215;-77
2023/02/15 01:58:02;;;;;;;0.50;0.40;;;2.50;99.90;;;;;;5050817;28;20748;-77
2023/02/15 02:00:30;;;;;;;0.50;0.50;;;2.40;99.90;;;;;;5042500;28;20207;-78
2023/02/15 02:03:16;;;;;;;0.50;0.50;;;2.40;99.90;;;;;;5045242;28;20682;-77
2023/02/15 02:05:43;;;;;;;1.55;1.55;;;2.30;99.90;;;;;;5046794;28;20722;-78
2023/02/15 02:08:10;;;;;;;0.60;0.60;;;2.30;99.90;;;;;;5043670;28;20227;-77
2023/02/15 02:10:37;;;;;;;0.50;0.50;;;2.20;99.90;;;;;;5043529;28;20663;-78
2023/02/15 02:13:06;;;;;;;1.15;1.15;;;2.20;99.90;;;;;;5044985;28;20227;-78
2023/02/15 02:15:45;;;;;;;0.50;0.40;;;2.20;99.90;;;;;;5046586;28;20268;-77
2023/02/15 02:18:23;;;;;;;0.55;0.50;;;2.20;99.90;;;;;;5043274;28;20269;-77
2023/02/15 02:21:12;;;;;;;0.77;0.77;;;2.30;99.90;;;;;;5042863;28;20581;-77
2023/02/15 02:23:52;;;;;;;0.50;0.43;;;2.30;99.90;;;;;;5037075;28;20195;-77
2023/02/15 02:26:59;;;;;;;0.50;0.50;;;2.30;99.90;;;;;;5035758;28;20221;-78
2023/02/15 02:29:59;;;;;;;0.50;0.50;;;2.30;99.90;;;;;;5036552;28;20210;-78
2023/02/15 02:32:59;;;;;;;0.50;0.40;;;2.20;99.90;;;;;;5036533;28;20231;-77
2023/02/15 02:35:33;;;;;;;0.50;0.50;;;2.20;99.90;;;;;;5036189;28;20211;-78
2023/02/15 02:38:09;;;;;;;0.93;0.93;;;2.10;99.90;;;;;;5051793;28;20225;-78
2023/02/15 02:40:47;;;;;;;1.35;1.25;;;2.10;99.90;;;;;;5045146;28;20555;-77
2023/02/15 02:43:21;;;;;;;0.50;0.50;;;2.20;99.90;;;;;;5047708;28;20198;-78
2023/02/15 02:45:52;;;;;;;0.88;0.88;;;2.10;99.90;;;;;;5047994;28;20900;-78
2023/02/15 02:48:23;;;;;;;0.85;0.85;;;2.00;99.90;;;;;;5035079;28;20201;-78
2023/02/15 02:50:50;;;;;;;0.50;0.40;;;2.00;99.90;;;;;;5043231;28;20213;-78
2023/02/15 02:53:17;;;;;;;0.93;0.93;;;2.00;99.90;;;;;;5034789;28;20209;-79
2023/02/15 02:55:48;;;;;;;0.50;0.40;;;2.00;99.90;;;;;;5041016;28;20238;-77
2023/02/15 02:58:21;;;;;;;0.50;0.45;;;1.90;99.90;;;;;;5043886;28;20210;-77
2023/02/15 03:00:53;;;;;;;0.50;0.40;;;1.90;99.90;;;;;;5049115;28;20572;-78
2023/02/15 03:03:26;;;;;;;0.50;0.40;;;1.90;99.90;;;;;;5037304;28;20820;-78
2023/02/15 03:05:57;;;;;;;0.50;0.40;;;1.90;99.90;;;;;;5045046;28;20210;-78
2023/02/15 03:08:31;;;;;;;0.50;0.50;;;1.80;99.90;;;;;;5046071;28;20733;-79
2023/02/15 03:11:00;;;;;;;0.50;0.40;;;1.80;99.90;;;;;;5045983;28;20206;-78
2023/02/15 03:13:28;;;;;;;0.55;0.52;;;1.70;99.90;;;;;;5048727;28;20202;-78
2023/02/15 03:18:52;;;;;;;1.10;1.10;;;1.80;99.90;;;;;;5044017;28;20201;-78
2023/02/15 03:21:22;;;;;;;0.50;0.40;;;1.90;99.90;;;;;;5048034;28;20281;-78
2023/02/15 03:23:52;;;;;;;1.27;1.17;;;1.80;99.90;;;;;;5050547;28;20206;-78
2023/02/15 03:26:21;;;;;;;0.50;0.40;;;1.80;99.90;;;;;;5039717;28;20651;-76
2023/02/15 03:28:51;;;;;;;0.60;0.60;;;1.80;99.90;;;;;;5040777;28;20203;-77
2023/02/15 03:31:22;;;;;;;0.50;0.40;;;1.90;99.90;;;;;;5047157;28;20217;-78
2023/02/15 03:33:54;;;;;;;0.88;0.88;;;1.80;99.90;;;;;;5047352;28;20199;-78
2023/02/15 03:36:25;;;;;;;0.50;0.50;;;1.80;99.90;;;;;;5036455;28;20215;-77
2023/02/15 03:38:59;;;;;;;0.50;0.40;;;1.70;99.90;;;;;;5043873;28;20206;-77
2023/02/15 03:41:30;;;;;;;0.50;0.40;;;1.60;99.90;;;;;;5036567;28;20245;-78
2023/02/15 03:44:01;;;;;;;0.50;0.40;;;1.60;99.90;;;;;;5042662;28;20203;-77
2023/02/15 03:46:33;;;;;;;0.50;0.50;;;1.70;99.90;;;;;;5046952;28;20696;-79
2023/02/15 03:49:05;;;;;;;0.50;0.50;;;1.60;99.90;;;;;;5046114;28;20199;-76
2023/02/15 03:51:33;;;;;;;0.50;0.50;;;1.60;99.90;;;;;;5043734;28;20202;-77
2023/02/15 03:54:01;;;;;;;0.50;0.50;;;1.50;99.90;;;;;;5044082;28;20195;-78
2023/02/15 03:56:28;;;;;;;1.38;1.05;;;1.50;99.90;;;;;;5046380;28;20214;-77
2023/02/15 04:02:00;;;;;;;0.50;0.50;;;1.50;99.90;;;;;;5043252;28;20720;-77
2023/02/15 04:04:33;;;;;;;0.50;0.47;;;1.50;99.90;;;;;;5035287;28;20278;-78
2023/02/15 04:07:00;;;;;;;0.50;0.50;;;1.50;99.90;;;;;;5044445;28;20234;-78
2023/02/15 04:12:11;;;;;;;0.73;0.73;;;1.40;99.90;;;;;;5045109;28;20206;-78
2023/02/15 04:17:22;;;;;;;0.50;0.40;;;1.50;99.90;;;;;;5047571;28;20217;-78
2023/02/15 04:25:19;;;;;;;0.50;0.50;;;1.40;99.90;;;;;;5046553;28;20723;-77
2023/02/15 04:27:48;;;;;;;0.50;0.40;;;1.40;99.90;;;;;;5047027;28;20226;-78
2023/02/15 04:30:16;;;;;;;0.50;0.40;;;1.40;99.90;;;;;;5044990;28;20199;-77
2023/02/15 04:32:43;;;;;;;0.50;0.40;;;1.30;99.90;;;;;;5043710;28;20397;-78
2023/02/15 04:35:12;;;;;;;0.50;0.50;;;1.40;99.90;;;;;;5044334;28;20215;-78
2023/02/15 04:37:39;;;;;;;0.50;0.50;;;1.30;99.90;;;;;;5050087;28;20588;-78
2023/02/15 04:40:07;;;;;;;0.50;0.50;;;1.30;99.90;;;;;;5043999;28;20202;-77
2023/02/15 04:42:34;;;;;;;2.05;1.95;;;1.30;99.90;;;;;;5047497;28;20689;-77
2023/02/15 04:45:01;;;;;;;0.50;0.50;;;1.30;99.90;;;;;;5046630;28;20226;-77
2023/02/15 04:47:28;;;;;;;0.50;0.40;;;1.20;99.90;;;;;;5046554;28;20218;-78
2023/02/15 04:49:55;;;;;;;0.50;0.50;;;1.30;99.90;;;;;;5046737;28;20225;-77
2023/02/15 04:52:23;;;;;;;0.50;0.40;;;1.30;99.90;;;;;;5043630;28;20278;-78
2023/02/15 04:54:50;;;;;;;0.50;0.40;;;1.30;99.90;;;;;;5043597;28;20262;-78
2023/02/15 04:57:17;;;;;;;0.50;0.40;;;1.30;99.90;;;;;;5045948;28;20215;-78
2023/02/15 04:59:43;;;;;;;0.50;0.40;;;1.20;99.90;;;;;;5047570;28;20194;-79
2023/02/15 05:02:10;;;;;;;0.50;0.50;;;1.20;99.90;;;;;;5039150;28;20257;-78
2023/02/15 05:04:37;;;;;;;0.50;0.40;;;1.20;99.90;;;;;;5047216;28;20217;-78
2023/02/15 05:07:04;;;;;;;0.50;0.40;;;1.20;99.90;;;;;;5046409;28;20230;-79
2023/02/15 05:09:32;;;;;;;0.50;0.50;;;1.20;99.90;;;;;;5044322;28;20201;-79
2023/02/15 05:11:59;;;;;;;0.50;0.50;;;1.20;99.90;;;;;;5043616;28;20895;-78
2023/02/15 05:14:25;;;;;;;0.50;0.45;;;1.10;99.90;;;;;;5046461;28;20561;-79
2023/02/15 05:16:53;;;;;;;0.57;0.57;;;1.10;99.90;;;;;;5047302;28;20223;-78
2023/02/15 05:19:20;;;;;;;0.50;0.40;;;1.10;99.90;;;;;;5042028;28;20348;-77
2023/02/15 05:21:47;;;;;;;0.50;0.40;;;1.30;99.90;;;;;;5031561;28;20275;-77
2023/02/15 05:29:43;;;;;;;0.50;0.40;;;1.20;99.90;;;;;;5035264;28;20322;-76
2023/02/15 05:32:12;;;;;;;0.50;0.50;;;1.10;99.90;;;;;;5034182;28;20205;-76
2023/02/15 05:34:39;;;;;;;0.50;0.50;;;1.10;99.90;;;;;;5048231;28;20205;-76
2023/02/15 05:37:07;;;;;;;0.50;0.40;;;1.10;99.90;;;;;;5040664;28;20222;-77
2023/02/15 05:39:34;;;;;;;0.50;0.40;;;1.20;99.90;;;;;;5041807;28;20191;-77
2023/02/15 05:42:03;;;;;;;0.50;0.40;;;1.20;99.90;;;;;;5044076;28;20217;-79
2023/02/15 05:44:29;;;;;;;0.50;0.40;;;1.10;99.90;;;;;;5046163;28;20195;-78
2023/02/15 05:46:56;;;;;;;0.50;0.50;;;1.10;99.90;;;;;;5046910;28;20725;-77
2023/02/15 05:49:23;;;;;;;0.50;0.50;;;1.10;99.90;;;;;;5044662;28;20241;-79
2023/02/15 05:51:50;;;;;;;0.50;0.50;;;1.10;99.90;;;;;;5046057;28;20277;-78
2023/02/15 05:54:17;;;;;;;0.50;0.50;;;1.10;99.90;;;;;;5045000;28;20233;-78
2023/02/15 05:56:43;;;;;;;0.50;0.50;;;1.20;99.90;;;;;;5042168;28;20229;-79
2023/02/15 05:59:12;;;;;;;0.60;0.60;;;1.20;99.90;;;;;;5048686;28;20195;-81
2023/02/15 06:01:39;;;;;;;0.50;0.40;;;1.20;99.90;;;;;;5048705;28;20198;-79
2023/02/15 06:04:06;;;;;;;0.50;0.40;;;1.20;99.90;;;;;;5046650;28;20713;-78
2023/02/15 06:06:34;;;;;;;0.50;0.40;;;1.20;99.90;;;;;;5027605;28;20581;-78
2023/02/15 06:09:01;;;;;;;0.50;0.40;;;1.20;99.90;;;;;;5042708;28;20201;-79
2023/02/15 06:11:27;;;;;;;0.50;0.50;;;1.10;99.90;;;;;;5043103;28;20201;-79
2023/02/15 06:13:54;;;;;;;0.50;0.40;;;1.10;99.90;;;;;;5045788;28;20696;-79
2023/02/15 06:16:22;;;;;;;0.50;0.40;;;1.10;99.90;;;;;;5046598;28;20222;-77
2023/02/15 06:18:49;;;;;;;0.50;0.50;;;1.10;99.90;;;;;;5046249;28;20201;-79
2023/02/15 06:21:16;;;;;;;0.80;0.80;;;1.10;99.90;;;;;;5045493;28;20214;-79
2023/02/15 06:23:43;;;;;;;0.70;0.70;;;1.10;99.90;;;;;;5046948;28;20195;-78
2023/02/15 06:26:09;;;;;;;1.35;1.35;;;1.20;99.90;;;;;;5045637;28;20291;-79
2023/02/15 06:28:37;;;;;;;0.50;0.40;;;1.20;99.90;;;;;;5042240;28;20638;-78
2023/02/15 06:31:03;;;;;;;0.50;0.50;;;1.20;99.90;;;;;;5043186;28;20195;-78
2023/02/15 06:33:33;;;;;;;0.95;0.95;;;1.20;99.90;;;;;;5041882;28;20195;-77
2023/02/15 06:36:00;;;;;;;5.20;4.72;;;1.20;99.90;;;;;;5042568;28;20219;-80
2023/02/15 06:38:27;;;;;;;0.50;0.50;;;1.20;99.90;;;;;;5045825;28;20206;-79
2023/02/15 06:40:54;;;;;;;0.50;0.40;;;1.20;99.90;;;;;;5046083;28;20676;-78
2023/02/15 06:43:20;;;;;;;1.13;1.13;;;1.20;99.90;;;;;;5043572;28;20202;-78
2023/02/15 06:45:47;;;;;;;0.50;0.40;;;1.20;99.90;;;;;;5040746;28;20191;-79
2023/02/15 06:48:14;;;;;;;0.50;0.40;;;1.30;99.90;;;;;;5050194;28;20708;-78
2023/02/15 06:50:42;;;;;;;0.50;0.40;;;1.40;99.90;;;;;;5040527;28;20671;-77
2023/02/15 06:53:09;;;;;;;0.50;0.50;;;1.30;99.90;;;;;;5042075;28;20199;-79
2023/02/15 06:55:36;;;;;;;0.50;0.43;;;1.30;99.90;;;;;;5045427;28;20293;-77
2023/02/15 06:58:03;;;;;;;0.50;0.50;;;1.40;99.90;;;;;;5032611;28;20219;-78
2023/02/15 07:00:30;;;;;;;0.50;0.50;;;1.40;99.90;;;;;;5044535;28;20564;-77
2023/02/15 07:02:57;;;;;;;0.50;0.40;;;1.40;99.90;;;;;;5044150;28;20198;-76
2023/02/15 07:05:24;;;;;;;0.50;0.40;;;1.50;99.90;;;;;;5040714;28;20264;-77
2023/02/15 07:07:52;;;;;;;0.50;0.40;;;1.50;99.90;;;;;;5038090;28;20306;-78
2023/02/15 07:10:19;;;;;;;0.80;0.80;;;1.60;99.90;;;;;;5043683;28;20199;-78
2023/02/15 07:12:45;;;;;;;0.50;0.47;;;1.60;99.90;;;;;;5039487;28;20230;-78
2023/02/15 07:15:15;;;;;;;0.50;0.40;;;1.70;99.90;;;;;;5045837;28;20201;-77
2023/02/15 07:17:42;;;;;;;0.50;0.40;;;1.80;99.90;;;;;;5047539;28;20301;-78
2023/02/15 07:20:11;;;;;;;0.50;0.50;;;1.80;99.90;;;;;;5037705;28;20199;-78
2023/02/15 07:22:38;;;;;;;0.50;0.40;;;1.90;99.90;;;;;;5045996;28;20209;-76
2023/02/15 07:25:09;;;;;;;1.05;1.05;;;2.00;99.90;;;;;;5044968;28;20631;-78
2023/02/15 07:27:36;;;;;;;0.60;0.60;;;2.20;99.90;;;;;;5028385;28;20215;-78
2023/02/15 07:30:03;;;;;;;2.65;2.40;;;2.30;99.90;;;;;;5044529;28;20624;-78
2023/02/15 07:32:31;;;;;;;0.70;0.50;;;2.40;99.90;;;;;;5038437;28;20199;-78
2023/02/15 07:34:59;;;;;;;1.35;1.25;;;2.60;99.90;;;;;;5039230;28;20210;-78
2023/02/15 07:37:26;;;;;;;2.08;1.10;;;3.00;99.90;;;;;;5032055;28;20223;-79
2023/02/15 07:39:53;;;;;;;10.20;3.00;;;3.80;99.90;;;;;;5044756;28;20207;-79
2023/02/15 07:42:22;;;;;;;12.77;3.85;;;4.30;99.90;;;;;;5047460;28;20226;-81
2023/02/15 07:44:48;;;;;;;1.65;1.65;;;4.80;99.90;;;;;;5049596;28;20226;-79
2023/02/15 07:47:17;;;;;;;1.58;1.48;;;5.70;99.90;;;;;;5045035;28;20211;-80
2023/02/15 07:49:44;;;;;;;2.78;1.52;;;6.30;99.90;;;;;;5051844;28;20194;-79
2023/02/15 07:52:10;;;;;;;0.50;0.40;;;6.70;99.90;;;;;;5043449;28;20199;-80
2023/02/15 07:54:37;;;;;;;0.50;0.40;;;7.10;99.90;;;;;;5047610;28;20257;-79
2023/02/15 07:57:05;;;;;;;3.38;3.13;;;7.60;99.90;;;;;;5048040;28;20218;-79
2023/02/15 07:59:33;;;;;;;2.25;2.15;;;8.50;99.90;;;;;;5051935;28;20202;-79
2023/02/15 08:01:59;;;;;;;12.48;10.88;;;9.40;99.90;;;;;;5052275;28;20233;-79
2023/02/15 08:04:26;;;;;;;0.70;0.70;;;10.10;99.90;;;;;;5046990;28;20289;-79
2023/02/15 08:06:54;;;;;;;1.08;1.08;;;10.90;99.90;;;;;;5047688;28;20686;-78
2023/02/15 08:09:22;;;;;;;0.50;0.40;;;11.90;99.90;;;;;;5047417;28;20280;-78
2023/02/15 08:11:49;;;;;;;1.67;1.57;;;13.10;99.90;;;;;;5051911;28;20449;-79
2023/02/15 08:14:18;;;;;;;0.67;0.67;;;14.30;99.90;;;;;;5049867;28;20445;-79
2023/02/15 08:16:48;;;;;;;0.50;0.40;;;15.10;99.90;;;;;;5046217;28;20908;-79
2023/02/15 08:19:17;;;;;;;0.50;0.40;;;16.30;99.90;;;;;;5044229;28;20456;-76
2023/02/15 08:21:46;;;;;;;0.50;0.30;;;17.30;89.60;;;;;;5048641;28;20449;-78
2023/02/15 08:24:14;;;;;;;0.50;0.40;;;18.10;81.80;;;;;;5048202;28;20490;-77
2023/02/15 08:26:42;;;;;;;0.50;0.40;;;18.70;73.70;;;;;;5044891;28;20509;-79
2023/02/15 08:29:10;;;;;;;1.00;0.80;;;18.50;71.80;;;;;;5056390;28;20442;-78
2023/02/15 08:31:37;;;;;;;0.50;0.30;;;18.90;69.40;;;;;;5054854;28;20437;-78
2023/02/15 08:34:06;;;;;;;0.77;0.77;;;19.10;67.20;;;;;;5047182;28;20450;-77
2023/02/15 08:36:33;;;;;;;0.50;0.30;;;19.60;66.00;;;;;;5045954;28;20485;-77
2023/02/15 08:39:02;;;;;;;1.37;1.37;;;20.30;64.20;;;;;;5046360;28;20441;-77
2023/02/15 08:41:30;;;;;;;0.50;0.40;;;21.60;63.80;;;;;;5044469;28;20805;-77
2023/02/15 08:43:59;;;;;;;5.80;1.67;;;22.20;59.50;;;;;;5043730;28;20820;-77
2023/02/15 08:46:29;;;;;;;1.57;1.47;;;23.20;58.00;;;;;;5045956;28;20454;-78
2023/02/15 08:48:56;;;;;;;6.43;3.23;;;23.30;56.70;;;;;;5050331;28;20452;-78
2023/02/15 08:51:25;;;;;;;1.70;1.50;;;23.90;54.50;;;;;;5047773;28;20541;-78
2023/02/15 08:53:54;;;;;;;1.37;1.10;;;23.10;53.20;;;;;;5045229;28;20454;-79
2023/02/15 08:56:22;;;;;;;3.23;1.30;;;22.90;54.80;;;;;;5048257;28;20488;-78
2023/02/15 08:58:50;;;;;;;1.47;1.23;;;23.40;54.20;;;;;;5046956;28;20445;-79
2023/02/15 09:01:19;;;;;;;1.17;0.83;;;23.30;53.20;;;;;;5047013;28;21138;-78
2023/02/15 09:03:47;;;;;;;2.13;1.93;;;22.60;53.20;;;;;;5044045;28;20450;-78
2023/02/15 09:06:15;;;;;;;3.70;1.53;;;22.60;52.70;;;;;;5044074;28;20442;-79
2023/02/15 09:08:43;;;;;;;0.50;0.30;;;21.60;53.40;;;;;;5035846;28;20889;-79
2023/02/15 09:11:12;;;;;;;2.63;0.63;;;21.20;54.10;;;;;;5043868;28;20446;-79
2023/02/15 09:13:40;;;;;;;2.13;2.03;;;21.40;55.30;;;;;;5046754;28;20448;-78
2023/02/15 09:16:10;;;;;;;1.73;0.80;;;22.00;53.50;;;;;;5048142;28;20481;-79
2023/02/15 09:18:38;;;;;;;2.03;1.93;;;21.40;52.60;;;;;;5045226;28;20945;-78
2023/02/15 09:21:07;;;;;;;0.97;0.97;;;20.90;53.80;;;;;;5044505;28;20529;-78
2023/02/15 09:23:34;;;;;;;3.87;3.17;;;20.30;54.70;;;;;;5047640;28;20453;-79
2023/02/15 09:26:06;;;;;;;1.17;0.50;;;20.10;54.00;;;;;;5062108;28;20475;-78
2023/02/15 09:28:33;;;;;;;1.27;1.07;;;19.80;55.50;;;;;;5064601;28;20426;-79
2023/02/15 09:31:06;;;;;;;3.57;2.73;;;20.80;55.50;;;;;;5063483;28;20441;-78
2023/02/15 09:33:34;;;;;;;2.37;2.27;;;20.90;53.90;;;;;;5057811;28;20446;-78
2023/02/15 09:36:01;;;;;;;2.00;1.00;;;20.60;53.90;;;;;;5060685;28;20445;-79
2023/02/15 09:38:28;;;;;;;8.53;4.63;;;20.70;53.90;;;;;;5059382;28;20446;-79
2023/02/15 09:41:09;;;;;;;2.63;1.80;;;20.50;54.20;;;;;;5058155;28;20469;-79
2023/02/15 09:43:39;;;;;;;1.67;1.57;;;20.90;54.20;;;;;;5059178;28;20513;-78
2023/02/15 09:46:30;;;;;;;2.07;1.87;;;20.40;53.70;;;;;;5056256;28;20437;-79
2023/02/15 09:48:59;;;;;;;3.30;3.10;;;19.60;54.20;;;;;;5040771;28;20885;-78
2023/02/15 09:51:53;;;;;;;2.10;1.87;;;18.30;55.40;;;;;;5051966;28;20442;-78
2023/02/15 09:54:40;;;;;;;2.70;2.00;;;17.80;57.00;;;;;;5051520;28;20448;-79
2023/02/15 09:57:15;;;;;;;7.43;3.37;;;17.00;57.50;;;;;;5054126;28;20467;-79
2023/02/15 09:59:53;;;;;;;2.97;2.73;;;15.70;59.10;;;;;;5064434;28;20417;-78
2023/02/15 10:02:36;;;;;;;0.60;0.57;;;14.90;60.40;;;;;;5060231;28;20425;-78
2023/02/15 10:05:18;;;;;;;4.50;2.80;;;14.60;63.00;;;;;;5057496;28;20432;-79
2023/02/15 10:08:02;;;;;;;0.50;0.50;;;14.80;64.30;;;;;;5040145;28;20798;-78
2023/02/15 10:10:40;;;;;;;0.70;0.70;;;14.60;63.80;;;;;;5048318;28;20447;-78
2023/02/15 10:13:21;;;;;;;3.93;1.47;;;14.70;64.50;;;;;;5059719;22;20434;-80
2023/02/15 10:16:08;;;;;;;5.17;2.20;;;14.70;63.90;;;;;;5060163;28;20464;-82
2023/02/15 10:18:53;;;;;;;1.40;1.30;;;14.50;64.20;;;;;;5058436;28;20424;-80
2023/02/15 10:21:34;;;;;;;5.73;3.10;;;14.30;65.00;;;;;;5061048;28;20437;-79
2023/02/15 10:24:24;;;;;;;4.67;3.43;;;14.00;66.20;;;;;;5057379;28;20467;-81
2023/02/15 10:26:52;;;;;;;5.00;4.33;;;13.30;66.90;;;;;;5050456;28;21018;-81
2023/02/15 10:29:30;;;;;;;2.57;2.40;;;13.00;69.00;;;;;;5057302;28;20433;-80
2023/02/15 10:32:06;;;;;;;1.50;1.47;;;12.90;69.80;;;;;;5049461;28;20437;-78
2023/02/15 10:34:38;;;;;;;4.93;2.83;;;12.90;70.70;;;;;;5055983;28;20460;-81
2023/02/15 10:37:31;;;;;;;1.00;1.00;;;13.20;71.60;;;;;;5056957;28;20476;-81
2023/02/15 10:40:07;;;;;;;1.57;1.47;;;13.40;71.20;;;;;;5051853;28;20437;-81
2023/02/15 10:42:48;;;;;;;1.83;1.73;;;13.30;71.50;;;;;;5059917;28;20433;-83
2023/02/15 10:45:29;;;;;;;2.27;2.10;;;13.50;72.40;;;;;;5066974;28;20433;-79
2023/02/15 10:48:11;;;;;;;0.83;0.77;;;13.80;71.10;;;;;;5070485;28;20413;-82
2023/02/15 10:50:48;;;;;;;5.07;1.23;;;13.80;71.50;;;;;;5065117;28;20437;-79
2023/02/15 10:53:43;;;;;;;3.40;2.30;;;14.00;70.30;;;;;;5058221;28;20452;-81
2023/02/15 10:56:19;;;;;;;2.37;2.17;;;14.50;70.40;;;;;;5059044;28;20449;-81
2023/02/15 10:59:01;;;;;;;1.47;0.93;;;14.90;68.50;;;;;;5056962;28;20452;-81
2023/02/15 11:01:37;;;;;;;9.87;5.43;;;15.00;66.20;;;;;;5056125;28;20429;-80
2023/02/15 11:04:36;;;;;;;3.23;2.93;;;14.60;66.30;;;;;;5056590;28;20456;-80
2023/02/15 11:07:07;;;;;;;1.10;1.07;;;14.90;66.70;;;;;;5048426;28;20516;-79
2023/02/15 11:09:41;;;;;;;5.40;3.17;;;15.30;66.20;;;;;;5054779;28;20437;-80
2023/02/15 11:12:13;;;;;;;3.97;2.17;;;15.80;65.30;;;;;;5054656;28;20428;-80
2023/02/15 11:14:45;;;;;;;1.80;0.90;;;16.50;65.70;;;;;;5054464;28;20461;-80
2023/02/15 11:17:17;;;;;;;3.10;2.47;;;17.10;64.50;;;;;;5054845;28;20464;-80
2023/02/15 11:20:01;;;;;;;1.07;0.80;;;17.80;61.60;;;;;;5054975;28;20429;-78
2023/02/15 11:22:28;;;;;;;4.33;3.93;;;17.60;60.90;;;;;;5057614;28;20437;-79
2023/02/15 11:24:57;;;;;;;3.03;2.20;;;17.80;59.60;;;;;;5058977;28;20461;-80
2023/02/15 11:27:28;;;;;;;2.60;1.57;;;17.40;59.20;;;;;;5059143;28;20444;-77
2023/02/15 11:30:00;;;;;;;4.77;3.30;;;16.90;59.90;;;;;;5060414;28;20437;-78
2023/02/15 11:32:31;;;;;;;2.20;1.57;;;17.30;60.60;;;;;;5059486;28;20443;-81
2023/02/15 11:35:04;;;;;;;8.93;3.10;;;16.90;60.20;;;;;;5059488;28;20461;-78
2023/02/15 11:37:37;;;;;;;12.13;4.53;;;16.50;60.40;;;;;;5058548;28;20817;-81
2023/02/15 11:40:18;;;;;;;2.63;1.83;;;15.80;60.90;;;;;;5060480;28;20443;-81
2023/02/15 11:42:46;;;;;;;4.20;1.37;;;15.60;62.60;;;;;;5058556;28;20433;-79
2023/02/15 11:45:22;;;;;;;2.60;1.97;;;15.80;63.60;;;;;;5059290;28;20468;-82
2023/02/15 11:47:51;;;;;;;4.20;1.23;;;15.90;64.80;;;;;;5059849;28;20429;-80
2023/02/15 11:50:22;;;;;;;3.00;2.30;;;15.60;63.50;;;;;;5060259;28;20436;-81
2023/02/15 11:52:49;;;;;;;0.60;0.50;;;15.30;65.30;;;;;;5059729;28;20444;-79
2023/02/15 11:55:20;;;;;;;14.53;2.53;;;15.50;65.30;;;;;;5059610;28;20512;-81
2023/02/15 11:57:54;;;;;;;3.10;1.77;;;15.90;65.60;;;;;;5060106;28;20465;-80
2023/02/15 12:00:35;;;;;;;0.90;0.90;;;16.30;64.50;;;;;;5059781;28;20536;-81
2023/02/15 12:03:10;;;;;;;1.67;1.17;;;16.10;63.70;;;;;;5058563;28;20437;-80
2023/02/15 12:05:40;;;;;;;4.30;1.10;;;16.20;63.50;;;;;;5058507;28;20443;-81
2023/02/15 12:08:16;;;;;;;0.83;0.80;;;16.30;63.70;;;;;;5058943;28;20797;-80
2023/02/15 12:10:54;;;;;;;11.60;2.53;;;16.30;63.90;;;;;;5058556;28;20433;-81
2023/02/15 12:13:21;;;;;;;0.50;0.30;;;16.30;62.70;;;;;;5058627;28;20467;-82
2023/02/15 12:15:50;;;;;;;2.20;1.43;;;16.50;62.10;;;;;;5058511;28;20512;-79
2023/02/15 12:18:35;;;;;;;1.00;0.87;;;16.20;61.10;;;;;;5060135;28;20481;-81
2023/02/15 12:21:05;;;;;;;0.70;0.70;;;16.10;61.80;;;;;;5059882;28;20443;-82
2023/02/15 12:23:33;;;;;;;0.50;0.40;;;15.90;62.60;;;;;;5059171;28;20449;-79
2023/02/15 12:26:01;;;;;;;0.93;0.80;;;15.50;62.70;;;;;;5059868;28;20438;-81
2023/02/15 12:28:33;;;;;;;0.80;0.80;;;15.60;63.20;;;;;;5059757;28;20971;-80
2023/02/15 12:31:02;;;;;;;0.50;0.40;;;15.90;64.00;;;;;;5058080;28;20430;-81
2023/02/15 12:33:35;;;;;;;0.60;0.53;;;16.00;63.30;;;;;;5059484;28;20726;-78
2023/02/15 12:36:05;;;;;;;1.93;1.50;;;16.30;62.80;;;;;;5059544;28;20502;-81
2023/02/15 12:38:33;;;;;;;2.07;1.30;;;16.30;61.80;;;;;;5060256;28;20468;-81
2023/02/15 12:41:02;;;;;;;4.20;1.40;;;16.40;62.10;;;;;;5060137;28;20730;-81
2023/02/15 12:43:33;;;;;;;10.30;4.77;;;16.30;61.90;;;;;;5059015;28;20464;-81
2023/02/15 12:46:21;;;;;;;0.60;0.40;;;16.10;61.90;;;;;;5060496;28;20433;-81
2023/02/15 12:49:07;;;;;;;0.63;0.63;;;16.30;63.00;;;;;;5061480;28;20448;-81
2023/02/15 12:51:44;;;;;;;0.60;0.50;;;16.30;61.40;;;;;;5061284;28;20468;-79
2023/02/15 12:54:25;;;;;;;0.50;0.30;;;16.20;62.00;;;;;;5059905;28;20464;-80
2023/02/15 12:56:52;;;;;;;2.60;1.70;;;16.30;63.20;;;;;;5060352;28;20433;-75
2023/02/15 12:59:20;;;;;;;1.47;1.37;;;16.30;62.40;;;;;;5060468;28;20947;-80
2023/02/15 13:01:48;;;;;;;0.50;0.30;;;16.20;63.30;;;;;;5059127;28;20658;-82
2023/02/15 13:04:23;;;;;;;0.63;0.57;;;16.30;63.30;;;;;;5058144;28;20815;-80
2023/02/15 13:06:53;;;;;;;0.50;0.40;;;16.60;62.00;;;;;;5076091;28;20436;-79
2023/02/15 13:09:25;;;;;;;1.33;1.27;;;16.80;61.40;;;;;;5076928;28;20429;-80
2023/02/15 13:11:53;;;;;;;0.53;0.50;;;17.10;61.70;;;;;;5075026;28;20440;-81
2023/02/15 13:14:22;;;;;;;0.50;0.30;;;16.70;61.20;;;;;;5066397;28;20500;-81
2023/02/15 13:16:52;;;;;;;1.03;1.03;;;16.60;62.60;;;;;;5063527;28;20441;-81
2023/02/15 13:19:29;;;;;;;7.53;4.30;;;16.60;62.00;;;;;;5062133;28;20511;-81
2023/02/15 13:21:58;;;;;;;4.60;2.20;;;16.40;60.10;;;;;;5053621;28;20433;-81
2023/02/15 13:24:27;;;;;;;0.97;0.97;;;16.30;59.50;;;;;;5066160;28;20459;-80
2023/02/15 13:26:56;;;;;;;1.90;1.80;;;16.40;59.50;;;;;;5058554;28;20504;-80
2023/02/15 13:29:26;;;;;;;0.60;0.57;;;16.60;59.30;;;;;;5064129;28;20851;-81
2023/02/15 13:31:55;;;;;;;1.43;1.33;;;16.90;59.40;;;;;;5060677;28;20429;-81
2023/02/15 13:34:26;;;;;;;0.97;0.97;;;17.40;59.20;;;;;;5063099;28;20484;-81